sensor_id;sensor_type;location;lat;lon;timestamp;pressure;altitude;pressure_sealevel;temperature;humidity
7058;BME280;3570;43.080;25.628;2023-05-20T00:01:59;-19819.03;;;12.56;100.00
7058;BME280;3570;43.080;25.628;2023-05-20T00:04:43;-19820.66;;;12.61;100.00
7058;BME280;3570;43.080;25.628;2023-05-20T00:07:27;-19819.34;;;12.57;100.00
7058;BME280;3570;43.080;25.628;2023-05-20T00:10:11;-19810.72;;;12.27;100.00
7058;BME280;3570;43.080;25.628;2023-05-20T00:12:55;-19816.44;;;12.47;100.00
7058;BME280;3570;43.080;25.628;2023-05-20T00:15:39;-19811.91;;;12.31;100.00
7058;BME280;3570;43.080;25.628;2023-05-20T00:18:23;-19822.25;;;12.67;100.00
7058;BME280;3570;43.080;25.628;2023-05-20T00:21:07;-19825.47;;;12.78;100.00
7058;BME280;3570;43.080;25.628;2023-05-20T00:23:51;-19811.91;;;12.31;100.00
7058;BME280;3570;43.080;25.628;2023-05-20T00:26:34;-19820.66;;;12.61;100.00
7058;BME280;3570;43.080;25.628;2023-05-20T00:29:20;-19819.03;;;12.56;100.00
7058;BME280;3570;43.080;25.628;2023-05-20T00:32:04;-19821.22;;;12.63;100.00
7058;BME280;3570;43.080;25.628;2023-05-20T00:34:56;-19807.09;;;12.14;100.00
7058;BME280;3570;43.080;25.628;2023-05-20T00:37:42;-19820.06;;;12.59;100.00
7058;BME280;3570;43.080;25.628;2023-05-20T00:40:26;-19821.09;;;12.63;100.00
7058;BME280;3570;43.080;25.628;2023-05-20T00:43:10;-19818.63;;;12.54;100.00
7058;BME280;3570;43.080;25.628;2023-05-20T00:45:54;-19820.06;;;12.59;100.00
7058;BME280;3570;43.080;25.628;2023-05-20T00:48:40;-19823.28;;;12.70;100.00
7058;BME280;3570;43.080;25.628;2023-05-20T00:51:25;-19817.88;;;12.52;100.00
7058;BME280;3570;43.080;25.628;2023-05-20T00:54:09;-19816.28;;;12.46;100.00
7058;BME280;3570;43.080;25.628;2023-05-20T00:56:54;-19818.91;;;12.55;100.00
7058;BME280;3570;43.080;25.628;2023-05-20T00:59:39;-19821.81;;;12.65;100.00
7058;BME280;3570;43.080;25.628;2023-05-20T01:02:23;-19809.41;;;12.22;100.00
7058;BME280;3570;43.080;25.628;2023-05-20T01:05:06;-19811.16;;;12.28;100.00
7058;BME280;3570;43.080;25.628;2023-05-20T01:07:50;-19808.25;;;12.18;100.00
7058;BME280;3570;43.080;25.628;2023-05-20T01:10:39;-19801.97;;;11.97;100.00
7058;BME280;3570;43.080;25.628;2023-05-20T01:13:30;-19800.53;;;11.92;100.00
7058;BME280;3570;43.080;25.628;2023-05-20T01:16:17;-19800.81;;;11.93;100.00
7058;BME280;3570;43.080;25.628;2023-05-20T01:19:02;-19799.06;;;11.87;100.00
7058;BME280;3570;43.080;25.628;2023-05-20T01:21:47;-19797.88;;;11.83;100.00
7058;BME280;3570;43.080;25.628;2023-05-20T01:24:32;-19793.22;;;11.67;100.00
7058;BME280;3570;43.080;25.628;2023-05-20T01:27:16;-19802.72;;;11.99;100.00
7058;BME280;3570;43.080;25.628;2023-05-20T01:30:03;-19803.28;;;12.01;100.00
7058;BME280;3570;43.080;25.628;2023-05-20T01:32:51;-19797.75;;;11.82;100.00
7058;BME280;3570;43.080;25.628;2023-05-20T01:35:38;-19800.22;;;11.91;100.00
7058;BME280;3570;43.080;25.628;2023-05-20T01:38:24;-19803.00;;;12.00;100.00
7058;BME280;3570;43.080;25.628;2023-05-20T01:41:10;-19801.53;;;11.95;100.00
7058;BME280;3570;43.080;25.628;2023-05-20T01:43:55;-19801.41;;;11.95;100.00
7058;BME280;3570;43.080;25.628;2023-05-20T01:46:39;-19795.56;;;11.75;100.00
7058;BME280;3570;43.080;25.628;2023-05-20T01:49:23;-19803.28;;;12.01;100.00
7058;BME280;3570;43.080;25.628;2023-05-20T01:52:07;-19795.84;;;11.76;100.00
7058;BME280;3570;43.080;25.628;2023-05-20T01:54:52;-19802.13;;;11.97;100.00
7058;BME280;3570;43.080;25.628;2023-05-20T01:57:35;-19802.28;;;11.98;100.00
7058;BME280;3570;43.080;25.628;2023-05-20T02:00:20;-19803.16;;;12.01;100.00
7058;BME280;3570;43.080;25.628;2023-05-20T02:03:04;-19795.56;;;11.75;100.00
7058;BME280;3570;43.080;25.628;2023-05-20T02:05:48;-19802.56;;;11.99;100.00
7058;BME280;3570;43.080;25.628;2023-05-20T02:08:32;-19787.09;;;11.46;100.00
7058;BME280;3570;43.080;25.628;2023-05-20T02:11:16;-19800.38;;;11.91;100.00
7058;BME280;3570;43.080;25.628;2023-05-20T02:14:00;-19798.34;;;11.84;100.00
7058;BME280;3570;43.080;25.628;2023-05-20T02:16:45;-19802.28;;;11.98;100.00
7058;BME280;3570;43.080;25.628;2023-05-20T02:19:29;-19799.94;;;11.90;100.00
7058;BME280;3570;43.080;25.628;2023-05-20T02:22:13;-19793.97;;;11.69;100.00
7058;BME280;3570;43.080;25.628;2023-05-20T02:24:57;-19789.56;;;11.54;100.00
7058;BME280;3570;43.080;25.628;2023-05-20T02:27:41;-19795.56;;;11.75;100.00
7058;BME280;3570;43.080;25.628;2023-05-20T02:30:26;-19787.81;;;11.48;100.00
7058;BME280;3570;43.080;25.628;2023-05-20T02:33:10;-19784.91;;;11.38;100.00
7058;BME280;3570;43.080;25.628;2023-05-20T02:35:55;-19786.50;;;11.44;100.00
7058;BME280;3570;43.080;25.628;2023-05-20T02:38:39;-19792.78;;;11.65;100.00
7058;BME280;3570;43.080;25.628;2023-05-20T02:41:23;-19781.84;;;11.27;100.00
7058;BME280;3570;43.080;25.628;2023-05-20T02:44:07;-19783.59;;;11.33;100.00
7058;BME280;3570;43.080;25.628;2023-05-20T02:46:51;-19783.16;;;11.32;100.00
7058;BME280;3570;43.080;25.628;2023-05-20T02:49:35;-19786.94;;;11.45;100.00
7058;BME280;3570;43.080;25.628;2023-05-20T02:52:19;-19784.03;;;11.35;100.00
7058;BME280;3570;43.080;25.628;2023-05-20T02:55:03;-19779.34;;;11.19;100.00
7058;BME280;3570;43.080;25.628;2023-05-20T02:57:47;-19784.31;;;11.36;100.00
7058;BME280;3570;43.080;25.628;2023-05-20T03:00:31;-19785.03;;;11.38;100.00
7058;BME280;3570;43.080;25.628;2023-05-20T03:03:18;-19786.34;;;11.43;100.00
7058;BME280;3570;43.080;25.628;2023-05-20T03:06:01;-19781.09;;;11.25;100.00
7058;BME280;3570;43.080;25.628;2023-05-20T03:08:45;-19789.28;;;11.53;100.00
7058;BME280;3570;43.080;25.628;2023-05-20T03:11:30;-19780.09;;;11.21;100.00
7058;BME280;3570;43.080;25.628;2023-05-20T03:14:13;-19784.31;;;11.36;100.00
7058;BME280;3570;43.080;25.628;2023-05-20T03:16:58;-19781.09;;;11.25;100.00
7058;BME280;3570;43.080;25.628;2023-05-20T03:19:42;-19781.25;;;11.25;100.00
7058;BME280;3570;43.080;25.628;2023-05-20T03:22:26;-19781.84;;;11.27;100.00
7058;BME280;3570;43.080;25.628;2023-05-20T03:25:10;-19773.38;;;10.98;100.00
7058;BME280;3570;43.080;25.628;2023-05-20T03:27:55;-19764.75;;;10.69;100.00
7058;BME280;3570;43.080;25.628;2023-05-20T03:30:40;-19787.81;;;11.48;100.00
7058;BME280;3570;43.080;25.628;2023-05-20T03:33:24;-19786.06;;;11.42;100.00
7058;BME280;3570;43.080;25.628;2023-05-20T03:36:08;-19776.13;;;11.08;100.00
7058;BME280;3570;43.080;25.628;2023-05-20T03:38:52;-19781.69;;;11.27;100.00
7058;BME280;3570;43.080;25.628;2023-05-20T03:41:37;-19781.09;;;11.25;100.00
7058;BME280;3570;43.080;25.628;2023-05-20T03:44:21;-19770.59;;;10.89;100.00
7058;BME280;3570;43.080;25.628;2023-05-20T03:47:05;-19778.34;;;11.15;100.00
7058;BME280;3570;43.080;25.628;2023-05-20T03:49:49;-19771.47;;;10.92;100.00
7058;BME280;3570;43.080;25.628;2023-05-20T03:52:33;-19767.97;;;10.80;100.00
7058;BME280;3570;43.080;25.628;2023-05-20T03:55:17;-19781.84;;;11.27;100.00
7058;BME280;3570;43.080;25.628;2023-05-20T03:58:03;-19780.97;;;11.24;100.00
7058;BME280;3570;43.080;25.628;2023-05-20T04:00:47;-19775.69;;;11.06;100.00
7058;BME280;3570;43.080;25.628;2023-05-20T04:03:32;-19782.13;;;11.28;100.00
7058;BME280;3570;43.080;25.628;2023-05-20T04:06:17;-19784.47;;;11.36;100.00
7058;BME280;3570;43.080;25.628;2023-05-20T04:09:01;-19781.53;;;11.26;100.00
7058;BME280;3570;43.080;25.628;2023-05-20T04:11:45;-19785.78;;;11.41;100.00
7058;BME280;3570;43.080;25.628;2023-05-20T04:14:29;-19793.66;;;11.68;100.00
7058;BME280;3570;43.080;25.628;2023-05-20T04:17:14;-19797.03;;;11.80;100.00
7058;BME280;3570;43.080;25.628;2023-05-20T04:19:58;-19797.47;;;11.81;100.00
7058;BME280;3570;43.080;25.628;2023-05-20T04:22:42;-19793.38;;;11.67;100.00
7058;BME280;3570;43.080;25.628;2023-05-20T04:25:26;-19794.41;;;11.71;100.00
7058;BME280;3570;43.080;25.628;2023-05-20T04:28:10;-19806.22;;;12.11;100.00
7058;BME280;3570;43.080;25.628;2023-05-20T04:30:58;-19803.00;;;12.00;100.00
7058;BME280;3570;43.080;25.628;2023-05-20T04:33:42;-19804.47;;;12.05;100.00
7058;BME280;3570;43.080;25.628;2023-05-20T04:36:27;-19806.22;;;12.11;100.00
7058;BME280;3570;43.080;25.628;2023-05-20T04:39:12;-19803.28;;;12.01;100.00
7058;BME280;3570;43.080;25.628;2023-05-20T04:41:56;-19805.19;;;12.08;100.00
7058;BME280;3570;43.080;25.628;2023-05-20T04:44:40;-19810.59;;;12.26;100.00
7058;BME280;3570;43.080;25.628;2023-05-20T04:47:24;-19808.84;;;12.20;100.00
7058;BME280;3570;43.080;25.628;2023-05-20T04:50:09;-19807.97;;;12.17;100.00
7058;BME280;3570;43.080;25.628;2023-05-20T04:52:53;-19817.59;;;12.51;100.00
7058;BME280;3570;43.080;25.628;2023-05-20T04:55:38;-19821.09;;;12.63;100.00
7058;BME280;3570;43.080;25.628;2023-05-20T04:58:22;-19832.75;;;13.03;100.00
7058;BME280;3570;43.080;25.628;2023-05-20T05:01:07;-19838.72;;;13.23;100.00
7058;BME280;3570;43.080;25.628;2023-05-20T05:03:51;-19835.53;;;13.12;100.00
7058;BME280;3570;43.080;25.628;2023-05-20T05:06:36;-19847.34;;;13.53;100.00
7058;BME280;3570;43.080;25.628;2023-05-20T05:09:19;-19851.13;;;13.66;100.00
7058;BME280;3570;43.080;25.628;2023-05-20T05:12:04;-19852.88;;;13.72;100.00
7058;BME280;3570;43.080;25.628;2023-05-20T05:14:48;-19850.53;;;13.64;100.00
7058;BME280;3570;43.080;25.628;2023-05-20T05:17:32;-19850.69;;;13.65;100.00
7058;BME280;3570;43.080;25.628;2023-05-20T05:20:16;-19849.09;;;13.59;100.00
7058;BME280;3570;43.080;25.628;2023-05-20T05:23:01;-19845.28;;;13.46;100.00
7058;BME280;3570;43.080;25.628;2023-05-20T05:25:50;-19848.22;;;13.56;100.00
7058;BME280;3570;43.080;25.628;2023-05-20T05:28:35;-19852.88;;;13.72;100.00
7058;BME280;3570;43.080;25.628;2023-05-20T05:31:19;-19845.72;;;13.48;100.00
7058;BME280;3570;43.080;25.628;2023-05-20T05:34:03;-19856.66;;;13.85;100.00
7058;BME280;3570;43.080;25.628;2023-05-20T05:36:47;-19864.53;;;14.12;100.00
7058;BME280;3570;43.080;25.628;2023-05-20T05:39:30;-19878.06;;;14.59;100.00
7058;BME280;3570;43.080;25.628;2023-05-20T05:42:15;-19880.56;;;14.68;100.00
7058;BME280;3570;43.080;25.628;2023-05-20T05:44:59;-19896.28;;;15.22;100.00
7058;BME280;3570;43.080;25.628;2023-05-20T05:47:44;-19907.06;;;15.59;100.00
7058;BME280;3570;43.080;25.628;2023-05-20T05:50:28;-19916.06;;;15.90;100.00
7058;BME280;3570;43.080;25.628;2023-05-20T05:53:12;-19922.75;;;16.14;100.00
7058;BME280;3570;43.080;25.628;2023-05-20T05:55:57;-19917.53;;;15.95;100.00
7058;BME280;3570;43.080;25.628;2023-05-20T05:58:41;-19918.97;;;16.00;100.00
7058;BME280;3570;43.080;25.628;2023-05-20T06:01:25;-19929.59;;;16.37;100.00
7058;BME280;3570;43.080;25.628;2023-05-20T06:04:09;-19928.13;;;16.32;100.00
7058;BME280;3570;43.080;25.628;2023-05-20T06:06:53;-19928.88;;;16.35;100.00
7058;BME280;3570;43.080;25.628;2023-05-20T06:09:38;-19943.25;;;16.84;100.00
7058;BME280;3570;43.080;25.628;2023-05-20T06:12:22;-19947.19;;;16.98;100.00
7058;BME280;3570;43.080;25.628;2023-05-20T06:15:06;-19945.59;;;16.92;100.00
7058;BME280;3570;43.080;25.628;2023-05-20T06:17:50;-19942.09;;;16.80;100.00
7058;BME280;3570;43.080;25.628;2023-05-20T06:20:34;-19946.16;;;16.94;100.00
7058;BME280;3570;43.080;25.628;2023-05-20T06:23:18;-19960.25;;;17.43;100.00
7058;BME280;3570;43.080;25.628;2023-05-20T06:26:03;-19958.81;;;17.38;100.00
7058;BME280;3570;43.080;25.628;2023-05-20T06:28:47;-19978.84;;;18.08;100.00
7058;BME280;3570;43.080;25.628;2023-05-20T06:31:31;-19999.47;;;18.79;100.00
7058;BME280;3570;43.080;25.628;2023-05-20T06:34:15;-20000.78;;;18.84;100.00
7058;BME280;3570;43.080;25.628;2023-05-20T06:36:59;-20005.56;;;19.00;100.00
7058;BME280;3570;43.080;25.628;2023-05-20T06:39:42;-19991.63;;;18.52;100.00
7058;BME280;3570;43.080;25.628;2023-05-20T06:42:26;-19985.09;;;18.29;100.00
7058;BME280;3570;43.080;25.628;2023-05-20T06:45:10;-19981.63;;;18.17;100.00
7058;BME280;3570;43.080;25.628;2023-05-20T06:47:55;-19983.78;;;18.25;100.00
7058;BME280;3570;43.080;25.628;2023-05-20T06:50:39;-19986.25;;;18.33;100.00
7058;BME280;3570;43.080;25.628;2023-05-20T06:53:25;-19989.31;;;18.44;100.00
7058;BME280;3570;43.080;25.628;2023-05-20T06:56:09;-19981.47;;;18.17;100.00
7058;BME280;3570;43.080;25.628;2023-05-20T06:58:53;-19970.44;;;17.78;100.00
7058;BME280;3570;43.080;25.628;2023-05-20T07:01:38;-19985.53;;;18.31;100.00
7058;BME280;3570;43.080;25.628;2023-05-20T07:04:22;-19975.53;;;17.96;100.00
7058;BME280;3570;43.080;25.628;2023-05-20T07:07:06;-19969.56;;;17.75;100.00
7058;BME280;3570;43.080;25.628;2023-05-20T07:09:51;-19978.56;;;18.07;100.00
7058;BME280;3570;43.080;25.628;2023-05-20T07:12:35;-19989.63;;;18.45;100.00
7058;BME280;3570;43.080;25.628;2023-05-20T07:15:22;-19991.94;;;18.53;100.00
7058;BME280;3570;43.080;25.628;2023-05-20T07:18:06;-19988.75;;;18.42;100.00
7058;BME280;3570;43.080;25.628;2023-05-20T07:20:49;-19982.34;;;18.20;100.00
7058;BME280;3570;43.080;25.628;2023-05-20T07:23:33;-19987.72;;;18.38;100.00
7058;BME280;3570;43.080;25.628;2023-05-20T07:26:18;-19993.66;;;18.59;100.00
7058;BME280;3570;43.080;25.628;2023-05-20T07:29:03;-19996.00;;;18.67;100.00
7058;BME280;3570;43.080;25.628;2023-05-20T07:31:47;-19982.50;;;18.20;100.00
7058;BME280;3570;43.080;25.628;2023-05-20T07:34:31;-19984.53;;;18.27;100.00
7058;BME280;3570;43.080;25.628;2023-05-20T07:37:15;-19990.19;;;18.47;100.00
7058;BME280;3570;43.080;25.628;2023-05-20T07:40:00;-20022.41;;;19.58;100.00
7058;BME280;3570;43.080;25.628;2023-05-20T07:42:44;-20026.19;;;19.72;100.00
7058;BME280;3570;43.080;25.628;2023-05-20T07:45:28;-20051.09;;;20.58;100.00
7058;BME280;3570;43.080;25.628;2023-05-20T07:48:12;-20067.47;;;21.15;100.00
7058;BME280;3570;43.080;25.628;2023-05-20T07:50:56;-20077.75;;;21.50;100.00
7058;BME280;3570;43.080;25.628;2023-05-20T07:53:41;-20090.06;;;21.93;100.00
7058;BME280;3570;43.080;25.628;2023-05-20T07:56:25;-20074.72;;;21.40;100.00
7058;BME280;3570;43.080;25.628;2023-05-20T07:59:09;-20070.81;;;21.26;100.00
7058;BME280;3570;43.080;25.628;2023-05-20T08:01:53;-20043.28;;;20.31;100.00
7058;BME280;3570;43.080;25.628;2023-05-20T08:04:37;-20039.66;;;20.18;100.00
7058;BME280;3570;43.080;25.628;2023-05-20T08:07:21;-20062.13;;;20.96;100.00
7058;BME280;3570;43.080;25.628;2023-05-20T08:10:06;-20073.72;;;21.36;98.90
7058;BME280;3570;43.080;25.628;2023-05-20T08:12:50;-20085.56;;;21.78;94.66
7058;BME280;3570;43.080;25.628;2023-05-20T08:15:35;-20091.38;;;21.98;92.50
7058;BME280;3570;43.080;25.628;2023-05-20T08:18:19;-20085.28;;;21.77;93.56
7058;BME280;3570;43.080;25.628;2023-05-20T08:21:05;-20089.34;;;21.91;93.57
7058;BME280;3570;43.080;25.628;2023-05-20T08:23:52;-20085.28;;;21.77;91.07
7058;BME280;3570;43.080;25.628;2023-05-20T08:26:36;-20090.22;;;21.94;92.59
7058;BME280;3570;43.080;25.628;2023-05-20T08:29:20;-20098.88;;;22.24;91.98
7058;BME280;3570;43.080;25.628;2023-05-20T08:32:04;-20095.41;;;22.12;93.61
7058;BME280;3570;43.080;25.628;2023-05-20T08:34:49;-20105.97;;;22.48;91.27
7058;BME280;3570;43.080;25.628;2023-05-20T08:37:33;-20106.28;;;22.50;91.05
7058;BME280;3570;43.080;25.628;2023-05-20T08:40:17;-20103.66;;;22.40;91.03
7058;BME280;3570;43.080;25.628;2023-05-20T08:43:01;-20101.34;;;22.32;90.39
7058;BME280;3570;43.080;25.628;2023-05-20T08:45:45;-20091.94;;;22.00;92.19
7058;BME280;3570;43.080;25.628;2023-05-20T08:48:29;-20065.31;;;21.07;94.33
7058;BME280;3570;43.080;25.628;2023-05-20T08:51:15;-20069.66;;;21.22;95.21
7058;BME280;3570;43.080;25.628;2023-05-20T08:54:01;-20076.59;;;21.46;95.34
7058;BME280;3570;43.080;25.628;2023-05-20T08:56:45;-20073.28;;;21.35;93.07
7058;BME280;3570;43.080;25.628;2023-05-20T08:59:29;-20082.81;;;21.68;92.89
7058;BME280;3570;43.080;25.628;2023-05-20T09:02:14;-20078.19;;;21.52;92.49
7058;BME280;3570;43.080;25.628;2023-05-20T09:04:58;-20085.28;;;21.77;93.12
7058;BME280;3570;43.080;25.628;2023-05-20T09:07:42;-20076.03;;;21.44;91.79
7058;BME280;3570;43.080;25.628;2023-05-20T09:10:26;-20066.63;;;21.12;94.34
7058;BME280;3570;43.080;25.628;2023-05-20T09:13:10;-20066.31;;;21.11;95.65
7058;BME280;3570;43.080;25.628;2023-05-20T09:15:55;-20051.97;;;20.61;100.00
7058;BME280;3570;43.080;25.628;2023-05-20T09:18:39;-20032.41;;;19.93;100.00
7058;BME280;3570;43.080;25.628;2023-05-20T09:21:28;-19992.66;;;18.55;100.00
7058;BME280;3570;43.080;25.628;2023-05-20T09:24:12;-19948.50;;;17.03;100.00
7058;BME280;3570;43.080;25.628;2023-05-20T09:26:56;-19948.34;;;17.02;100.00
7058;BME280;3570;43.080;25.628;2023-05-20T09:29:41;-19931.63;;;16.44;100.00
7058;BME280;3570;43.080;25.628;2023-05-20T09:32:26;-19929.75;;;16.38;100.00
7058;BME280;3570;43.080;25.628;2023-05-20T09:35:12;-19931.78;;;16.45;100.00
7058;BME280;3570;43.080;25.628;2023-05-20T09:37:57;-19921.88;;;16.11;100.00
7058;BME280;3570;43.080;25.628;2023-05-20T09:40:43;-19932.66;;;16.48;100.00
7058;BME280;3570;43.080;25.628;2023-05-20T09:43:28;-19944.00;;;16.87;100.00
7058;BME280;3570;43.080;25.628;2023-05-20T09:46:12;-19956.63;;;17.31;100.00
7058;BME280;3570;43.080;25.628;2023-05-20T09:48:57;-19963.47;;;17.54;100.00
7058;BME280;3570;43.080;25.628;2023-05-20T09:51:42;-19982.63;;;18.21;100.00
7058;BME280;3570;43.080;25.628;2023-05-20T09:54:28;-19995.41;;;18.65;100.00
7058;BME280;3570;43.080;25.628;2023-05-20T09:57:13;-19991.63;;;18.52;100.00
7058;BME280;3570;43.080;25.628;2023-05-20T09:59:57;-20020.94;;;19.53;100.00
7058;BME280;3570;43.080;25.628;2023-05-20T10:02:51;-20026.91;;;19.74;100.00
7058;BME280;3570;43.080;25.628;2023-05-20T10:05:39;-20031.38;;;19.90;100.00
7058;BME280;3570;43.080;25.628;2023-05-20T10:11:27;-20034.56;;;20.01;100.00
7058;BME280;3570;43.080;25.628;2023-05-20T10:17:30;-20059.50;;;20.87;100.00
7058;BME280;3570;43.080;25.628;2023-05-20T10:20:19;-20078.19;;;21.52;100.00
7058;BME280;3570;43.080;25.628;2023-05-20T10:23:03;-20080.22;;;21.59;100.00
7058;BME280;3570;43.080;25.628;2023-05-20T10:25:52;-20093.38;;;22.05;97.67
7058;BME280;3570;43.080;25.628;2023-05-20T10:28:39;-20150.22;;;24.02;83.49
7058;BME280;3570;43.080;25.628;2023-05-20T10:31:23;-20186.75;;;25.30;78.08
7058;BME280;3570;43.080;25.628;2023-05-20T10:34:14;-20198.56;;;25.71;71.62
7058;BME280;3570;43.080;25.628;2023-05-20T10:36:59;-20200.44;;;25.77;74.05
7058;BME280;3570;43.080;25.628;2023-05-20T10:39:44;-20231.72;;;26.86;69.47
7058;BME280;3570;43.080;25.628;2023-05-20T10:42:28;-20227.25;;;26.71;65.47
7058;BME280;3570;43.080;25.628;2023-05-20T10:45:27;-20214.16;;;26.25;67.49
7058;BME280;3570;43.080;25.628;2023-05-20T10:48:40;-20237.78;;;27.08;63.98
7058;BME280;3570;43.080;25.628;2023-05-20T10:51:23;-20255.78;;;27.70;63.40
7058;BME280;3570;43.080;25.628;2023-05-20T10:54:09;-20288.44;;;28.85;61.95
7058;BME280;3570;43.080;25.628;2023-05-20T10:56:54;-20295.03;;;29.08;57.81
7058;BME280;3570;43.080;25.628;2023-05-20T10:59:39;-20307.97;;;29.53;55.06
7058;BME280;3570;43.080;25.628;2023-05-20T11:02:24;-20334.41;;;30.45;52.15
7058;BME280;3570;43.080;25.628;2023-05-20T11:05:12;-20335.69;;;30.50;49.53
7058;BME280;3570;43.080;25.628;2023-05-20T11:08:03;-20319.47;;;29.93;53.65
7058;BME280;3570;43.080;25.628;2023-05-20T11:10:48;-20301.66;;;29.31;52.90
7058;BME280;3570;43.080;25.628;2023-05-20T11:13:32;-20343.72;;;30.78;51.19
7058;BME280;3570;43.080;25.628;2023-05-20T11:16:16;-20366.53;;;31.58;46.01
7058;BME280;3570;43.080;25.628;2023-05-20T11:19:00;-20374.84;;;31.87;46.54
7058;BME280;3570;43.080;25.628;2023-05-20T11:21:44;-20360.94;;;31.38;45.51
7058;BME280;3570;43.080;25.628;2023-05-20T11:24:29;-20364.38;;;31.51;46.51
7058;BME280;3570;43.080;25.628;2023-05-20T11:27:13;-20372.53;;;31.79;44.47
7058;BME280;3570;43.080;25.628;2023-05-20T11:29:57;-20380.44;;;32.07;42.74
7058;BME280;3570;43.080;25.628;2023-05-20T11:32:43;-20384.88;;;32.22;41.50
7058;BME280;3570;43.080;25.628;2023-05-20T11:35:29;-20383.44;;;32.17;41.27
7058;BME280;3570;43.080;25.628;2023-05-20T11:38:14;-20381.84;;;32.12;41.85
7058;BME280;3570;43.080;25.628;2023-05-20T11:40:58;-20377.72;;;31.97;41.52
7058;BME280;3570;43.080;25.628;2023-05-20T11:43:43;-20353.63;;;31.13;43.38
7058;BME280;3570;43.080;25.628;2023-05-20T11:46:27;-20397.19;;;32.66;39.34
7058;BME280;3570;43.080;25.628;2023-05-20T11:49:15;-20383.28;;;32.17;41.94
7058;BME280;3570;43.080;25.628;2023-05-20T11:52:02;-20373.84;;;31.84;41.64
7058;BME280;3570;43.080;25.628;2023-05-20T11:54:52;-20382.88;;;32.15;41.26
7058;BME280;3570;43.080;25.628;2023-05-20T11:57:37;-20400.34;;;32.77;40.48
7058;BME280;3570;43.080;25.628;2023-05-20T12:00:22;-20393.19;;;32.52;39.44
7058;BME280;3570;43.080;25.628;2023-05-20T12:03:06;-20414.06;;;33.25;38.81
7058;BME280;3570;43.080;25.628;2023-05-20T12:05:51;-20427.38;;;33.72;37.37
7058;BME280;3570;43.080;25.628;2023-05-20T12:08:35;-20392.88;;;32.51;39.56
7058;BME280;3570;43.080;25.628;2023-05-20T12:11:19;-20324.63;;;30.11;43.90
7058;BME280;3570;43.080;25.628;2023-05-20T12:14:04;-20363.50;;;31.47;42.91
7058;BME280;3570;43.080;25.628;2023-05-20T12:16:49;-20329.94;;;30.30;45.93
7058;BME280;3570;43.080;25.628;2023-05-20T12:19:33;-20321.91;;;30.02;46.25
7058;BME280;3570;43.080;25.628;2023-05-20T12:22:17;-20362.94;;;31.45;43.15
7058;BME280;3570;43.080;25.628;2023-05-20T12:25:01;-20395.47;;;32.60;40.23
7058;BME280;3570;43.080;25.628;2023-05-20T12:27:46;-20427.81;;;33.73;37.56
7058;BME280;3570;43.080;25.628;2023-05-20T12:30:31;-20408.22;;;33.04;37.13
7058;BME280;3570;43.080;25.628;2023-05-20T12:33:15;-20427.94;;;33.74;36.46
7058;BME280;3570;43.080;25.628;2023-05-20T12:35:59;-20404.34;;;32.91;37.52
7058;BME280;3570;43.080;25.628;2023-05-20T12:38:43;-20381.72;;;32.11;38.71
7058;BME280;3570;43.080;25.628;2023-05-20T12:41:27;-20351.31;;;31.05;42.34
7058;BME280;3570;43.080;25.628;2023-05-20T12:44:11;-20294.75;;;29.07;46.97
7058;BME280;3570;43.080;25.628;2023-05-20T12:46:55;-20303.53;;;29.37;47.91
7058;BME280;3570;43.080;25.628;2023-05-20T12:49:39;-20305.97;;;29.46;47.96
7058;BME280;3570;43.080;25.628;2023-05-20T12:52:24;-20327.06;;;30.20;46.24
7058;BME280;3570;43.080;25.628;2023-05-20T12:55:08;-20268.28;;;28.14;51.63
7058;BME280;3570;43.080;25.628;2023-05-20T12:57:56;-20270.03;;;28.20;53.55
7058;BME280;3570;43.080;25.628;2023-05-20T13:00:40;-20261.53;;;27.90;51.41
7058;BME280;3570;43.080;25.628;2023-05-20T13:03:25;-20289.88;;;28.90;49.65
7058;BME280;3570;43.080;25.628;2023-05-20T13:06:09;-20308.13;;;29.53;47.57
7058;BME280;3570;43.080;25.628;2023-05-20T13:08:53;-20366.09;;;31.57;42.93
7058;BME280;3570;43.080;25.628;2023-05-20T13:11:37;-20376.56;;;31.93;41.50
7058;BME280;3570;43.080;25.628;2023-05-20T13:14:21;-20400.06;;;32.76;39.83
7058;BME280;3570;43.080;25.628;2023-05-20T13:17:05;-20423.50;;;33.58;37.79
7058;BME280;3570;43.080;25.628;2023-05-20T13:19:50;-20375.28;;;31.89;39.97
7058;BME280;3570;43.080;25.628;2023-05-20T13:22:34;-20330.94;;;30.33;44.21
7058;BME280;3570;43.080;25.628;2023-05-20T13:25:18;-20326.94;;;30.19;45.32
7058;BME280;3570;43.080;25.628;2023-05-20T13:28:03;-20355.91;;;31.21;42.26
7058;BME280;3570;43.080;25.628;2023-05-20T13:30:48;-20286.84;;;28.79;47.89
7058;BME280;3570;43.080;25.628;2023-05-20T13:33:32;-20234.16;;;26.95;53.40
7058;BME280;3570;43.080;25.628;2023-05-20T13:36:16;-20183.72;;;25.19;61.58
7058;BME280;3570;43.080;25.628;2023-05-20T13:39:00;-20163.78;;;24.50;67.29
7058;BME280;3570;43.080;25.628;2023-05-20T13:41:44;-20177.78;;;24.98;68.13
7058;BME280;3570;43.080;25.628;2023-05-20T13:44:28;-20162.78;;;24.46;68.86
7058;BME280;3570;43.080;25.628;2023-05-20T13:47:12;-20141.84;;;23.73;72.95
7058;BME280;3570;43.080;25.628;2023-05-20T13:49:56;-20129.41;;;23.30;75.47
7058;BME280;3570;43.080;25.628;2023-05-20T13:52:40;-20132.72;;;23.42;75.06
7058;BME280;3570;43.080;25.628;2023-05-20T13:55:23;-20133.59;;;23.45;74.94
7058;BME280;3570;43.080;25.628;2023-05-20T13:58:08;-20131.88;;;23.39;75.59
7058;BME280;3570;43.080;25.628;2023-05-20T14:00:52;-20135.47;;;23.51;74.66
7058;BME280;3570;43.080;25.628;2023-05-20T14:03:39;-20103.09;;;22.38;77.97
7058;BME280;3570;43.080;25.628;2023-05-20T14:06:25;-20056.31;;;20.76;98.11
7058;BME280;3570;43.080;25.628;2023-05-20T14:09:10;-20025.00;;;19.67;100.00
7058;BME280;3570;43.080;25.628;2023-05-20T14:11:54;-19989.31;;;18.44;100.00
7058;BME280;3570;43.080;25.628;2023-05-20T14:14:38;-19967.81;;;17.69;100.00
7058;BME280;3570;43.080;25.628;2023-05-20T14:17:24;-19950.81;;;17.11;100.00
7058;BME280;3570;43.080;25.628;2023-05-20T14:20:09;-19937.00;;;16.63;100.00
7058;BME280;3570;43.080;25.628;2023-05-20T14:22:54;-19926.81;;;16.28;100.00
7058;BME280;3570;43.080;25.628;2023-05-20T14:25:38;-19918.84;;;16.00;100.00
7058;BME280;3570;43.080;25.628;2023-05-20T14:28:23;-19910.09;;;15.70;100.00
7058;BME280;3570;43.080;25.628;2023-05-20T14:31:07;-19900.34;;;15.36;100.00